Terminal Aerodrome Forecast
Issued by NWS Charleston, WV

Current Version | Previous Version | Graphics & Text | Print | Product List | Glossary On
Versions: 1 2 3 4 5 6 7 8 9 10 11 12 13 14 15 16 17 18 19 20 21 22
203
FTUS41 KRLX 091725
TAFCRW
TAF
KCRW 091725Z 0918/1018 28007KT 6SM -SN BKN025 BKN050
     FM092200 27005KT P6SM BKN035
     FM100200 VRB03KT P6SM BKN030
     FM101600 25004KT P6SM SCT030=

USA.gov is the U.S. government's official web portal to all federal, state and local government web resources and services.